This is the latest recevied weather packets stored in our database for station/object DC8RAI-12. If no packets are shown the sender has not sent any weather packets the latest 10 day(s).
| Time | Temp. | Humidity | Pressure | Rain* | Wind** | Luminosity | Snow |
|---|---|---|---|---|---|---|---|
| 1777626895 | 15.56° C | 32% | 1026.9 hPa | - | - | - | - |
| 1777625995 | 14.44° C | 35% | 1027.1 hPa | - | - | - | - |
| 1777625095 | 13.89° C | 35% | 1027.2 hPa | - | - | - | - |
| 1777624195 | 12.78° C | 36% | 1027.3 hPa | - | - | - | - |
| 1777623295 | 12.78° C | 43% | 1027.3 hPa | - | - | - | - |
| 1777622394 | 11.67° C | 42% | 1027.4 hPa | - | - | - | - |
| 1777621494 | 11.11° C | 45% | 1027.3 hPa | - | - | - | - |
| 1777620594 | 10° C | 44% | 1027.4 hPa | - | - | - | - |
| 1777619694 | 8.89° C | 46% | 1027.3 hPa | - | - | - | - |
| 1777618794 | 8.89° C | 50% | 1027.4 hPa | - | - | - | - |
| 1777617901 | 8.33° C | 51% | 1027.4 hPa | - | - | - | - |
| 1777617001 | 6.67° C | 54% | 1027.3 hPa | - | - | - | - |
| 1777616101 | 5.56° C | 59% | 1027.2 hPa | - | - | - | - |
| 1777615201 | 5° C | 57% | 1027.3 hPa | - | - | - | - |
| 1777614300 | 4.44° C | 56% | 1027.2 hPa | - | - | - | - |
| 1777613400 | 5.56° C | 57% | 1027.4 hPa | - | - | - | - |
| 1777612500 | 3.89° C | 60% | 1027.3 hPa | - | - | - | - |
| 1777611600 | 0.56° C | 68% | 1027.4 hPa | - | - | - | - |
| 1777610700 | -0.56° C | 69% | 1027.3 hPa | - | - | - | - |
| 1777609800 | -0.56° C | 71% | 1027.3 hPa | - | - | - | - |
| 1777608900 | 0° C | 69% | 1027 hPa | - | - | - | - |
| 1777608000 | -1.11° C | 73% | 1026.9 hPa | - | - | - | - |
| 1777607100 | -0.56° C | 66% | 1026.8 hPa | - | - | - | - |
| 1777606200 | 0° C | 64% | 1026.7 hPa | - | - | - | - |
| 1777605300 | -0.56° C | 66% | 1026.8 hPa | - | - | - | - |
* Rain since midnight (hover to see other rain measurements)
** Current wind speed in m/s (hover to see current wind gust speed)